Forside
METAR-TAF:

METAR-TAF

Lufthavne :

Door County Cherryland Airport

Sturgeon Bay, Wisconsin, USA

Breddekreds: 44-51N, længdekreds: 087-25W, højde: 221 m

Aktuelle vejr

Denne rapport blev lavet for 21 minutter siden, kl. 02:56 UTC
Vind 10 kt fra nordvest
Temperatur -9°C
Fugtighed 62%
Tryk 1016 hPa
Sigt: 16.1 km
Brudte skyer i en højde af 3700 ft

METAR: KSUE 280256Z AUTO 32010KT 10SM BKN037 M09/M15 A3001 RMK AO2 SLP174 T10941150 53006 FZRANO

Tid: 21:17 (03:17 UTC)


TAF: fraværende

Vejrobservationer og prognoser fra mere end 4000 lufthavne (METAR og TAF).

De gule og røde prikker repræsenterer de meteorologiske stationer.

Flyt musen over at se navnet på stationen.

Så klik over at se vejr observationer og prognoser.

At skifte det kort: Klik på de grønne knapper med et sort kors for at zoome ind; på den grønne knap med en bindestreg for at zoome ud; eller på de grønne pile for tilstødende kort.


METAR-TAF: